createdAt,value
2023-05-05T00:02:13.266Z,100971.84
2023-05-05T00:04:39.642Z,100984.09
2023-05-05T00:07:05.985Z,100977.09
2023-05-05T00:09:32.566Z,100981.69
2023-05-05T00:11:58.964Z,100986.06
2023-05-05T00:14:25.370Z,100984.41
2023-05-05T00:16:52.588Z,100985.31
2023-05-05T00:19:18.982Z,100986.34
2023-05-05T00:21:45.335Z,100973.38
2023-05-05T00:24:11.823Z,100981.31
2023-05-05T00:26:38.238Z,100983.03
2023-05-05T00:29:04.685Z,100986.44
2023-05-05T00:31:31.105Z,100985.03
2023-05-05T00:33:57.494Z,100976.47
2023-05-05T00:36:23.849Z,100967.69
2023-05-05T00:38:50.269Z,100973.25
2023-05-05T00:41:16.660Z,100973.19
2023-05-05T00:43:43.143Z,100958.41
2023-05-05T00:46:28.294Z,100952.16
2023-05-05T00:48:54.796Z,100961.13
2023-05-05T00:51:21.213Z,100954.22
2023-05-05T00:53:48.230Z,100956.88
2023-05-05T00:56:15.930Z,100943.78
2023-05-05T00:58:42.756Z,100941.94
2023-05-05T01:01:09.684Z,100941.94
2023-05-05T01:03:39.810Z,100941.97
2023-05-05T01:06:28.011Z,100938.53
2023-05-05T01:09:05.977Z,100926.19
2023-05-05T01:11:38.798Z,100919.44
2023-05-05T01:14:17.078Z,100927.25
2023-05-05T01:16:53.868Z,100916.81
2023-05-05T01:19:46.207Z,100906.34
2023-05-05T01:22:14.062Z,100901.91
2023-05-05T01:25:11.681Z,100895.00
2023-05-05T01:27:59.608Z,100889.84
2023-05-05T01:30:44.100Z,100880.41
2023-05-05T01:33:11.868Z,100875.25
2023-05-05T01:35:42.273Z,100863.97
2023-05-05T01:38:16.843Z,100866.66
2023-05-05T01:40:57.551Z,100858.91
2023-05-05T01:43:24.103Z,100852.03
2023-05-05T01:45:50.591Z,100838.16
2023-05-05T01:48:17.210Z,100838.16
2023-05-05T01:50:43.906Z,100834.63
2023-05-05T01:53:10.240Z,100843.16
2023-05-05T01:55:36.873Z,100837.31
2023-05-05T01:58:03.819Z,100834.56
2023-05-05T02:00:30.422Z,100824.31
2023-05-05T02:02:57.348Z,100817.41
2023-05-05T02:05:23.841Z,100820.94
2023-05-05T02:07:50.841Z,100812.22
2023-05-05T02:10:17.201Z,100807.94
2023-05-05T02:12:43.643Z,100807.84
2023-05-05T02:15:10.642Z,100798.50
2023-05-05T02:17:37.008Z,100793.47
2023-05-05T02:20:04.177Z,100783.78
2023-05-05T02:22:31.650Z,100787.16
2023-05-05T02:24:58.433Z,100785.41
2023-05-05T02:27:24.985Z,100779.41
2023-05-05T02:29:57.728Z,100768.81
2023-05-05T02:32:32.281Z,100761.91
2023-05-05T02:34:58.881Z,100770.72
2023-05-05T02:37:26.074Z,100758.47
2023-05-05T02:39:59.070Z,100770.44
2023-05-05T02:42:30.008Z,100765.38
2023-05-05T02:44:58.839Z,100760.03
2023-05-05T02:47:36.586Z,100753.25
2023-05-05T02:50:07.319Z,100733.34
2023-05-05T02:52:33.875Z,100730.72
2023-05-05T02:55:00.527Z,100724.72
2023-05-05T02:57:37.792Z,100716.84
2023-05-05T03:00:16.309Z,100720.06
2023-05-05T03:02:53.904Z,100715.91
2023-05-05T03:05:24.450Z,100730.63
2023-05-05T03:07:56.045Z,100721.13
2023-05-05T03:10:33.916Z,100723.75
2023-05-05T03:13:01.408Z,100710.72
2023-05-05T03:15:32.152Z,100702.25
2023-05-05T03:17:58.716Z,100694.28
2023-05-05T03:20:25.810Z,100692.53
2023-05-05T03:22:52.155Z,100687.44
2023-05-05T03:25:18.747Z,100677.94
2023-05-05T03:27:45.108Z,100670.69
2023-05-05T03:30:12.091Z,100669.03
2023-05-05T03:32:38.720Z,100669.97
2023-05-05T03:35:05.547Z,100662.25
2023-05-05T03:37:31.910Z,100662.97
2023-05-05T03:39:58.443Z,100668.09
2023-05-05T03:42:25.122Z,100667.44
2023-05-05T03:44:53.529Z,100653.56
2023-05-05T03:47:20.108Z,100643.03
2023-05-05T03:49:46.469Z,100643.78
2023-05-05T03:52:14.977Z,100639.31
2023-05-05T03:54:42.602Z,100644.56
2023-05-05T03:57:08.944Z,100640.94
2023-05-05T03:59:35.346Z,100650.66
2023-05-05T04:02:01.917Z,100634.91
2023-05-05T04:04:28.416Z,100616.06
2023-05-05T04:06:54.895Z,100587.53
2023-05-05T04:09:21.447Z,100578.88
2023-05-05T04:11:47.785Z,100570.97
2023-05-05T04:14:14.195Z,100572.63
2023-05-05T04:16:40.762Z,100581.50
2023-05-05T04:19:07.145Z,100539.78
2023-05-05T04:21:33.498Z,100523.44
2023-05-05T04:24:00.037Z,100513.50
2023-05-05T04:26:27.198Z,100524.09
2023-05-05T04:28:53.561Z,100508.47
2023-05-05T04:31:20.162Z,100506.81
2023-05-05T04:33:46.543Z,100480.75
2023-05-05T04:36:13.002Z,100471.25
2023-05-05T04:38:39.499Z,100442.63
2023-05-05T04:41:08.907Z,100427.81
2023-05-05T04:43:35.963Z,100420.69
2023-05-05T04:46:02.306Z,100413.47
2023-05-05T04:48:28.682Z,100419.56
2023-05-05T04:50:55.211Z,100414.47
2023-05-05T04:53:21.556Z,100408.34
2023-05-05T04:55:47.952Z,100397.16
2023-05-05T04:58:14.335Z,100402.16
2023-05-05T05:00:40.697Z,100389.81
2023-05-05T05:03:08.149Z,100416.81
2023-05-05T05:05:34.587Z,100427.19
2023-05-05T05:08:00.944Z,100426.97
2023-05-05T05:10:28.387Z,100422.88
2023-05-05T05:12:54.989Z,100426.28
2023-05-05T05:15:21.443Z,100417.53
2023-05-05T05:17:47.777Z,100414.00
2023-05-05T05:20:14.394Z,100409.56
2023-05-05T05:22:42.044Z,100415.53
2023-05-05T05:25:08.744Z,100426.53
2023-05-05T05:27:35.144Z,100438.56
2023-05-05T05:30:01.631Z,100438.31
2023-05-05T05:32:27.993Z,100456.59
2023-05-05T05:34:54.582Z,100481.66
2023-05-05T05:37:21.053Z,100475.34
2023-05-05T05:39:53.520Z,100501.28
2023-05-05T05:42:19.922Z,100501.09
2023-05-05T05:44:46.264Z,100520.94
2023-05-05T05:47:12.603Z,100535.59
2023-05-05T05:49:39.020Z,100533.59
2023-05-05T05:52:05.870Z,100547.34
2023-05-05T05:54:34.402Z,100555.84
2023-05-05T05:57:02.590Z,100589.72
2023-05-05T05:59:28.949Z,100609.53
2023-05-05T06:01:55.672Z,100617.09
2023-05-05T06:04:22.107Z,100629.06
2023-05-05T06:06:48.471Z,100663.03
2023-05-05T06:09:14.847Z,100667.25
2023-05-05T06:11:41.247Z,100675.97
2023-05-05T06:14:07.584Z,100675.00
2023-05-05T06:16:34.007Z,100674.13
2023-05-05T06:19:00.436Z,100685.56
2023-05-05T06:21:27.624Z,100695.91
2023-05-05T06:23:53.985Z,100711.66
2023-05-05T06:26:21.667Z,100694.03
2023-05-05T06:28:48.024Z,100700.81
2023-05-05T06:31:14.469Z,100698.81
2023-05-05T06:33:40.965Z,100700.28
2023-05-05T06:36:07.508Z,100710.47
2023-05-05T06:38:33.881Z,100726.03
2023-05-05T06:41:00.438Z,100730.22
2023-05-05T06:43:26.932Z,100741.28
2023-05-05T06:45:53.320Z,100748.91
2023-05-05T06:48:19.735Z,100753.84
2023-05-05T06:50:46.098Z,100764.97
2023-05-05T06:53:12.443Z,100772.56
2023-05-05T06:55:42.731Z,100785.59
2023-05-05T06:58:09.290Z,100788.94
2023-05-05T07:00:35.668Z,100797.38
2023-05-05T07:03:02.568Z,100795.38
2023-05-05T07:05:28.973Z,100791.34
2023-05-05T07:07:55.819Z,100787.72
2023-05-05T07:10:22.942Z,100808.44
2023-05-05T07:12:49.643Z,100804.53
2023-05-05T07:15:26.716Z,100805.88
2023-05-05T07:17:55.526Z,100816.00
2023-05-05T07:20:21.918Z,100827.84
2023-05-05T07:22:48.272Z,100831.59
2023-05-05T07:25:14.677Z,100846.88
2023-05-05T07:27:41.035Z,100849.19
2023-05-05T07:30:12.412Z,100852.19
2023-05-05T07:32:40.925Z,100851.81
2023-05-05T07:35:07.560Z,100860.34
2023-05-05T07:37:34.086Z,100844.97
2023-05-05T07:40:00.624Z,100861.53
2023-05-05T07:42:26.953Z,100852.34
2023-05-05T07:44:53.327Z,100868.97
2023-05-05T07:47:20.121Z,100864.50
2023-05-05T07:49:46.521Z,100861.91
2023-05-05T07:52:12.978Z,100852.34
2023-05-05T07:54:39.740Z,100854.91
2023-05-05T07:57:06.120Z,100857.44
2023-05-05T07:59:32.497Z,100848.38
2023-05-05T08:01:58.861Z,100863.50
2023-05-05T08:04:25.310Z,100884.25
2023-05-05T08:06:51.744Z,100883.56
2023-05-05T08:09:18.140Z,100884.69
2023-05-05T08:11:44.493Z,100879.50
2023-05-05T08:14:10.902Z,100868.47
2023-05-05T08:16:37.324Z,100873.75
2023-05-05T08:19:05.066Z,100878.66
2023-05-05T08:21:36.475Z,100864.09
2023-05-05T08:24:02.874Z,100860.50
2023-05-05T08:26:29.250Z,100860.41
2023-05-05T08:29:00.559Z,100872.16
2023-05-05T08:31:28.287Z,100887.50
2023-05-05T08:33:55.074Z,100891.72
2023-05-05T08:36:21.419Z,100899.09
2023-05-05T08:38:47.756Z,100900.66
2023-05-05T08:41:14.486Z,100904.38
2023-05-05T08:43:43.659Z,100910.09
2023-05-05T08:46:11.229Z,100909.59
2023-05-05T08:48:38.573Z,100925.56
2023-05-05T08:51:05.681Z,100928.84
2023-05-05T08:53:46.733Z,100929.66
2023-05-05T08:56:13.410Z,100921.28
2023-05-05T08:58:39.750Z,100922.66
2023-05-05T09:01:06.674Z,100915.28
2023-05-05T09:03:33.114Z,100920.63
2023-05-05T09:05:59.497Z,100924.38
2023-05-05T09:08:26.099Z,100921.50
2023-05-05T09:10:52.465Z,100930.81
2023-05-05T09:13:18.848Z,100926.09
2023-05-05T09:15:45.408Z,100923.63
2023-05-05T09:18:14.711Z,100931.06
2023-05-05T09:20:41.560Z,100935.59
2023-05-05T09:23:09.116Z,100945.41
2023-05-05T09:25:35.772Z,100941.38
2023-05-05T09:28:08.593Z,100947.56
2023-05-05T09:30:34.933Z,100941.06
2023-05-05T09:33:02.203Z,100947.78
2023-05-05T09:35:28.653Z,100942.63
2023-05-05T09:37:55.108Z,100948.09
2023-05-05T09:40:21.824Z,100935.09
2023-05-05T09:42:48.279Z,100937.38
2023-05-05T09:45:17.641Z,100945.22
2023-05-05T09:47:47.346Z,100939.59
2023-05-05T09:50:15.912Z,100939.06
2023-05-05T09:52:42.885Z,100951.94
2023-05-05T09:55:17.617Z,100943.94
2023-05-05T09:57:43.963Z,100945.63
2023-05-05T10:00:10.956Z,100947.53
2023-05-05T10:02:38.946Z,100943.94
2023-05-05T10:05:16.027Z,100947.69
2023-05-05T10:07:43.705Z,100939.94
2023-05-05T10:10:14.197Z,100936.47
2023-05-05T10:12:40.891Z,100941.69
2023-05-05T10:15:08.347Z,100937.66
2023-05-05T10:18:06.844Z,100920.25
2023-05-05T10:20:35.665Z,100925.34
2023-05-05T10:23:02.806Z,100923.88
2023-05-05T10:25:31.303Z,100933.50
2023-05-05T10:27:59.934Z,100932.78
2023-05-05T10:30:30.010Z,100923.88
2023-05-05T10:35:53.546Z,100924.19
2023-05-05T10:38:19.963Z,100918.88
2023-05-05T10:40:48.424Z,100926.88
2023-05-05T10:43:15.107Z,100929.53
2023-05-05T10:45:42.002Z,100928.50
2023-05-05T10:48:12.757Z,100928.13
2023-05-05T10:50:41.781Z,100932.97
2023-05-05T10:53:13.555Z,100917.88
2023-05-05T10:55:44.901Z,100883.75
2023-05-05T10:58:43.587Z,100853.41
2023-05-05T11:01:13.868Z,100794.34
2023-05-05T11:03:40.270Z,100819.22
2023-05-05T11:06:09.764Z,100842.66
2023-05-05T11:08:40.480Z,100849.13
2023-05-05T11:11:07.841Z,100851.03
2023-05-05T11:13:34.210Z,100814.81
2023-05-05T11:16:01.904Z,100816.84
2023-05-05T11:18:37.686Z,100807.19
2023-05-05T11:21:07.446Z,100843.38
2023-05-05T11:23:34.076Z,100836.97
2023-05-05T11:26:00.723Z,100857.91
2023-05-05T11:28:30.896Z,100831.78
2023-05-05T11:30:58.534Z,100854.50
2023-05-05T11:33:37.838Z,100845.97
2023-05-05T11:36:08.363Z,100880.94
2023-05-05T11:38:50.170Z,100892.09
2023-05-05T11:41:34.744Z,100885.78
2023-05-05T11:44:19.724Z,100889.69
2023-05-05T11:46:52.145Z,100893.25
2023-05-05T11:49:28.008Z,100901.22
2023-05-05T11:52:01.302Z,100894.19
2023-05-05T11:54:27.850Z,100901.06
2023-05-05T11:56:58.801Z,100909.63
2023-05-05T11:59:25.184Z,100906.53
2023-05-05T12:01:51.835Z,100911.53
2023-05-05T12:04:18.312Z,100903.66
2023-05-05T12:06:45.696Z,100911.03
2023-05-05T12:09:15.531Z,100908.53
2023-05-05T12:11:52.710Z,100905.78
2023-05-05T12:14:19.262Z,100905.00
2023-05-05T12:16:58.351Z,100895.75
2023-05-05T12:19:29.743Z,100895.31
2023-05-05T12:21:56.644Z,100874.41
2023-05-05T12:24:23.204Z,100875.34
2023-05-05T12:26:49.657Z,100861.72
2023-05-05T12:29:26.210Z,100851.66
2023-05-05T12:31:52.695Z,100860.50
2023-05-05T12:34:19.106Z,100861.63
2023-05-05T12:36:45.918Z,100850.47
2023-05-05T12:39:12.288Z,100843.53
2023-05-05T12:41:38.634Z,100829.69
2023-05-05T12:44:05.195Z,100821.91
2023-05-05T12:46:31.902Z,100814.25
2023-05-05T12:49:04.820Z,100808.13
2023-05-05T12:51:36.128Z,100799.53
2023-05-05T12:54:07.146Z,100795.56
2023-05-05T12:56:37.574Z,100797.47
2023-05-05T12:59:08.048Z,100818.69
2023-05-05T13:01:56.331Z,100811.66
2023-05-05T13:04:23.808Z,100804.63
2023-05-05T13:07:07.482Z,100756.34
2023-05-05T13:09:34.632Z,100755.50
2023-05-05T13:12:03.050Z,100739.59
2023-05-05T13:14:30.768Z,100689.78
2023-05-05T13:16:57.390Z,100778.09
2023-05-05T13:19:27.498Z,100726.06
2023-05-05T13:21:55.014Z,100764.44
2023-05-05T13:24:28.717Z,100750.00
2023-05-05T13:27:01.342Z,100776.56
2023-05-05T13:29:31.137Z,100767.63
2023-05-05T13:31:58.058Z,100787.22
2023-05-05T13:34:24.680Z,100766.00
2023-05-05T13:36:51.839Z,100777.06
2023-05-05T13:39:18.399Z,100782.97
2023-05-05T13:41:45.330Z,100779.25
2023-05-05T13:44:12.193Z,100781.53
2023-05-05T13:46:38.625Z,100791.53
2023-05-05T13:49:05.064Z,100787.66
2023-05-05T13:51:31.439Z,100798.03
2023-05-05T13:53:58.960Z,100788.63
2023-05-05T13:56:27.680Z,100781.50
2023-05-05T13:58:54.320Z,100784.31
2023-05-05T14:01:20.772Z,100768.09
2023-05-05T14:03:47.200Z,100767.13
2023-05-05T14:06:13.599Z,100753.13
2023-05-05T14:08:39.966Z,100758.97
2023-05-05T14:11:06.423Z,100754.41
2023-05-05T14:13:32.849Z,100752.91
2023-05-05T14:15:59.196Z,100758.69
2023-05-05T14:18:25.981Z,100754.50
2023-05-05T14:20:52.490Z,100752.44
2023-05-05T14:23:18.909Z,100754.16
2023-05-05T14:25:45.459Z,100740.91
2023-05-05T14:28:11.865Z,100739.97
2023-05-05T14:30:39.387Z,100736.56
2023-05-05T14:33:05.951Z,100742.81
2023-05-05T14:35:32.348Z,100741.88
2023-05-05T14:37:58.697Z,100732.66
2023-05-05T14:40:25.276Z,100736.53
2023-05-05T14:42:51.731Z,100739.47
2023-05-05T14:45:18.122Z,100736.75
2023-05-05T14:47:44.591Z,100736.88
2023-05-05T14:50:11.029Z,100746.31
2023-05-05T14:52:39.224Z,100755.75
2023-05-05T14:55:07.004Z,100751.56
2023-05-05T14:57:33.486Z,100755.81
2023-05-05T14:59:59.827Z,100756.09
2023-05-05T15:02:26.473Z,100752.66
2023-05-05T15:04:53.093Z,100745.63
2023-05-05T15:07:20.486Z,100742.59
2023-05-05T15:09:47.133Z,100744.69
2023-05-05T15:12:13.517Z,100743.16
2023-05-05T15:14:40.746Z,100738.44
2023-05-05T15:17:07.336Z,100741.78
2023-05-05T15:19:33.700Z,100730.88
2023-05-05T15:22:00.042Z,100728.31
2023-05-05T15:24:26.424Z,100733.66
2023-05-05T15:26:52.787Z,100720.72
2023-05-05T15:29:19.316Z,100713.78
2023-05-05T15:31:45.901Z,100722.81
2023-05-05T15:34:12.306Z,100711.78
2023-05-05T15:36:38.737Z,100720.28
2023-05-05T15:39:05.257Z,100707.63
2023-05-05T15:41:33.755Z,100716.31
2023-05-05T15:44:00.709Z,100719.06
2023-05-05T15:46:27.179Z,100721.22
2023-05-05T15:48:53.580Z,100724.72
2023-05-05T15:51:20.083Z,100730.81
2023-05-05T15:53:47.062Z,100736.31
2023-05-05T15:56:13.457Z,100736.50
2023-05-05T15:58:39.943Z,100729.69
2023-05-05T16:01:06.578Z,100718.25
2023-05-05T16:03:33.117Z,100713.91
2023-05-05T16:05:59.805Z,100719.97
2023-05-05T16:08:26.236Z,100699.47
2023-05-05T16:10:52.665Z,100706.66
2023-05-05T16:13:19.189Z,100703.44
2023-05-05T16:15:46.285Z,100705.50
2023-05-05T16:18:12.666Z,100709.28
2023-05-05T16:20:39.052Z,100707.56
2023-05-05T16:23:05.432Z,100704.34
2023-05-05T16:25:31.804Z,100709.00
2023-05-05T16:28:00.073Z,100700.59
2023-05-05T16:30:26.742Z,100708.94
2023-05-05T16:32:54.359Z,100712.81
2023-05-05T16:35:21.093Z,100714.09
2023-05-05T16:37:47.810Z,100715.22
2023-05-05T16:40:14.212Z,100714.84
2023-05-05T16:42:41.914Z,100722.47
2023-05-05T16:45:10.641Z,100734.31
2023-05-05T16:47:37.231Z,100732.00
2023-05-05T16:50:04.026Z,100724.41
2023-05-05T16:52:30.529Z,100739.09
2023-05-05T16:54:57.214Z,100728.81
2023-05-05T16:57:23.656Z,100715.81
2023-05-05T16:59:50.096Z,100685.13
2023-05-05T17:02:16.506Z,100672.97
2023-05-05T17:04:42.850Z,100632.75
2023-05-05T17:07:09.232Z,100596.25
2023-05-05T17:09:35.806Z,100379.44
2023-05-05T17:12:04.028Z,100317.09
2023-05-05T17:14:30.624Z,100288.59
2023-05-05T17:16:56.984Z,100386.38
2023-05-05T17:19:23.350Z,100398.44
2023-05-05T17:21:49.951Z,100375.91
2023-05-05T17:24:16.297Z,100368.34
2023-05-05T17:26:42.681Z,100365.19
2023-05-05T17:29:10.914Z,100370.06
2023-05-05T17:31:38.706Z,100366.56
2023-05-05T17:34:05.246Z,100294.19
2023-05-05T17:36:31.873Z,100109.38
2023-05-05T17:38:58.275Z,99729.38
2023-05-05T17:41:25.593Z,99194.53
2023-05-05T17:43:52.025Z,98341.19
2023-05-05T17:46:18.395Z,97329.50
2023-05-05T17:48:44.830Z,96562.25
2023-05-05T17:51:11.427Z,95840.72
2023-05-05T17:53:37.776Z,94176.19
2023-05-05T17:56:05.663Z,93761.50
2023-05-05T17:58:33.933Z,93017.53
2023-05-05T18:01:00.397Z,92011.59
2023-05-05T18:03:26.952Z,91271.22
2023-05-05T18:05:53.427Z,90831.88
2023-05-05T18:08:19.788Z,90586.47
2023-05-05T18:10:46.170Z,90505.91
2023-05-05T18:13:12.778Z,90261.41
2023-05-05T18:15:40.162Z,90990.56
2023-05-05T18:18:06.530Z,90970.38
2023-05-05T18:20:32.912Z,90764.00
2023-05-05T18:22:59.250Z,90394.56
2023-05-05T18:25:25.603Z,88152.69
2023-05-05T18:27:52.164Z,87885.72
2023-05-05T18:30:18.611Z,87596.34
2023-05-05T18:32:45.022Z,86803.00
2023-05-05T18:35:11.688Z,86567.03
2023-05-05T18:37:38.270Z,86323.16
2023-05-05T18:40:05.802Z,86122.66
2023-05-05T18:42:32.367Z,85738.41
2023-05-05T18:44:58.737Z,85559.47
2023-05-05T18:47:26.093Z,85511.41
2023-05-05T18:49:52.702Z,85462.03
2023-05-05T18:52:19.073Z,85398.38
2023-05-05T18:54:45.484Z,85348.16
2023-05-05T18:57:11.980Z,85258.47
2023-05-05T18:59:38.484Z,85099.06
2023-05-05T19:02:04.943Z,85019.66
2023-05-05T19:04:32.663Z,85025.81
2023-05-05T19:06:59.568Z,85126.84
2023-05-05T19:09:26.032Z,85154.00
2023-05-05T19:11:52.479Z,85195.75
2023-05-05T19:14:18.881Z,85229.78
2023-05-05T19:16:45.298Z,85217.97
2023-05-05T19:19:11.720Z,85235.50
2023-05-05T19:21:38.318Z,85245.69
2023-05-05T19:24:05.389Z,85227.91
2023-05-05T19:26:31.761Z,85289.78
2023-05-05T19:28:58.214Z,85307.72
2023-05-05T19:31:27.830Z,85357.63
2023-05-05T19:34:01.484Z,85369.75
2023-05-05T19:36:28.148Z,85340.84
2023-05-05T19:38:55.741Z,85372.66
2023-05-05T19:41:22.284Z,85353.41
2023-05-05T19:43:49.807Z,85359.66
2023-05-05T19:46:17.035Z,85323.63
2023-05-05T19:48:44.030Z,85316.63
2023-05-05T19:51:10.411Z,85300.56
2023-05-05T19:53:36.772Z,85289.19
2023-05-05T19:56:04.785Z,85313.69
2023-05-05T19:58:33.775Z,85334.28
2023-05-05T20:01:00.198Z,85349.28
2023-05-05T20:03:26.830Z,85402.72
2023-05-05T20:05:53.363Z,85455.81
2023-05-05T20:08:19.852Z,85492.84
2023-05-05T20:10:46.366Z,85606.88
2023-05-05T20:13:12.873Z,85662.88
2023-05-05T20:15:39.436Z,85699.63
2023-05-05T20:18:05.912Z,85726.22
2023-05-05T20:20:32.277Z,85753.91
2023-05-05T20:22:58.608Z,85776.38
2023-05-05T20:25:25.030Z,85815.47
2023-05-05T20:27:51.383Z,85868.84
2023-05-05T20:30:17.858Z,85933.53
2023-05-05T20:32:44.395Z,85955.19
2023-05-05T20:35:12.674Z,86007.06
2023-05-05T20:37:39.182Z,86052.84
2023-05-05T20:40:06.499Z,86142.38
2023-05-05T20:42:32.931Z,86225.84
2023-05-05T20:45:00.575Z,86232.34
2023-05-05T20:47:27.094Z,86283.41
2023-05-05T20:49:53.484Z,86298.34
2023-05-05T20:52:19.903Z,86362.81
2023-05-05T20:54:46.469Z,86446.97
2023-05-05T20:57:12.830Z,86483.25
2023-05-05T20:59:39.196Z,86525.72
2023-05-05T21:02:05.759Z,86592.50
2023-05-05T21:04:32.352Z,86686.78
2023-05-05T21:06:58.721Z,86709.22
2023-05-05T21:09:25.150Z,86790.28
2023-05-05T21:11:51.516Z,86804.09
2023-05-05T21:14:17.900Z,86858.16
2023-05-05T21:16:44.303Z,86896.03
2023-05-05T21:19:10.693Z,86933.91
2023-05-05T21:21:37.029Z,86987.94
2023-05-05T21:24:04.904Z,87057.75
2023-05-05T21:26:32.629Z,87110.28
2023-05-05T21:28:59.014Z,87136.50
2023-05-05T21:31:25.444Z,87183.75
2023-05-05T21:33:51.788Z,87201.69
2023-05-05T21:36:19.204Z,87222.69
2023-05-05T21:38:45.971Z,87257.94
2023-05-05T21:41:12.404Z,87305.97
2023-05-05T21:43:38.768Z,87340.47
2023-05-05T21:46:05.663Z,87356.97
2023-05-05T21:48:32.748Z,87445.53
2023-05-05T21:50:59.189Z,87474.75
2023-05-05T21:53:25.753Z,87503.22
2023-05-05T21:55:52.170Z,87558.00
2023-05-05T21:58:18.517Z,87600.72
2023-05-05T22:00:45.147Z,87653.94
2023-05-05T22:03:12.062Z,87701.97
2023-05-05T22:05:38.464Z,87743.94
2023-05-05T22:08:04.914Z,87825.34
2023-05-05T22:10:31.301Z,87911.22
2023-05-05T22:12:58.048Z,87982.88
2023-05-05T22:15:27.613Z,88060.91
2023-05-05T22:17:56.596Z,88153.50
2023-05-05T22:20:23.073Z,88233.41
2023-05-05T22:22:49.610Z,88377.09
2023-05-05T22:25:16.194Z,88468.59
2023-05-05T22:27:42.822Z,88527.91
2023-05-05T22:30:09.820Z,88567.56
2023-05-05T22:32:36.206Z,88634.34
2023-05-05T22:35:02.615Z,88704.84
2023-05-05T22:37:29.149Z,88776.00
2023-05-05T22:39:55.668Z,88785.75
2023-05-05T22:42:22.044Z,88797.22
2023-05-05T22:44:48.584Z,88727.13
2023-05-05T22:47:15.116Z,88630.69
2023-05-05T22:49:41.587Z,88506.66
2023-05-05T22:52:08.824Z,88438.75
2023-05-05T22:54:35.149Z,88371.63
2023-05-05T22:57:02.150Z,88326.63
2023-05-05T22:59:28.746Z,88291.72
2023-05-05T23:01:55.153Z,88288.31
2023-05-05T23:04:21.596Z,88283.03
2023-05-05T23:06:48.008Z,88271.38
2023-05-05T23:09:14.644Z,88247.75
2023-05-05T23:11:41.031Z,88219.97
2023-05-05T23:14:07.400Z,88207.97
2023-05-05T23:16:33.834Z,88197.09
2023-05-05T23:19:00.301Z,88217.66
2023-05-05T23:21:26.852Z,88239.31
2023-05-05T23:23:54.915Z,88219.16
2023-05-05T23:26:21.342Z,88226.69
2023-05-05T23:28:47.770Z,88236.78
2023-05-05T23:31:14.259Z,88246.22
2023-05-05T23:33:40.623Z,88265.72
2023-05-05T23:36:07.080Z,88278.84
2023-05-05T23:38:33.454Z,88310.66
2023-05-05T23:40:59.842Z,88314.84
2023-05-05T23:43:26.446Z,88335.50
2023-05-05T23:45:52.803Z,88365.47
2023-05-05T23:48:19.556Z,88396.91
2023-05-05T23:50:46.093Z,88432.16
2023-05-05T23:53:12.438Z,88458.38
2023-05-05T23:55:38.772Z,88501.72
2023-05-05T23:58:05.163Z,88504.81
